N80238 KOAK-KSJC
Flight info
| Callsign | N80238 |
|---|---|
| Flight time | 0h 14m |
| Altitude | VFR |
| Route | |
| Aircraft | C172/L-VGD/C |
Departure
| Time | 2026-05-05 02:52 |
|---|---|
| Airport | San Francisco Bay Oakland International Airport (KOAK) |
Arrival
| Time | 2026-05-05 03:06 |
|---|---|
| Airport | Norman Y. Mineta San Jose International Airport (KSJC) |
| Time | Latitude | Longitude | Altitude | Speed | Heading |
|---|---|---|---|---|---|
| 2026-05-05 02:44 | 37.73046 | -122.21310 | 8 ft | 0 kts | 110° |
| 2026-05-05 02:47 | 37.73011 | -122.21322 | 9 ft | 15 kts | 219° |
| 2026-05-05 02:47 | 37.72914 | -122.21330 | 10 ft | 23 kts | 133° |
| 2026-05-05 02:47 | 37.72800 | -122.21137 | 14 ft | 32 kts | 112° |
| 2026-05-05 02:47 | 37.72702 | -122.20832 | 13 ft | 41 kts | 111° |
| 2026-05-05 02:48 | 37.72600 | -122.20517 | 11 ft | 31 kts | 111° |
| 2026-05-05 02:48 | 37.72551 | -122.20439 | 11 ft | 0 kts | 200° |
| 2026-05-05 02:50 | 37.72544 | -122.20445 | 11 ft | 12 kts | 218° |
| 2026-05-05 02:51 | 37.72547 | -122.20677 | 9 ft | 54 kts | 291° |
| 2026-05-05 02:51 | 37.72733 | -122.21238 | 112 ft | 76 kts | 292° |
| 2026-05-05 02:51 | 37.72947 | -122.21853 | 360 ft | 75 kts | 291° |
| 2026-05-05 02:51 | 37.73295 | -122.22353 | 529 ft | 83 kts | 336° |
| 2026-05-05 02:52 | 37.73821 | -122.22419 | 820 ft | 76 kts | 7° |
| 2026-05-05 02:52 | 37.74339 | -122.22196 | 999 ft | 84 kts | 37° |
| 2026-05-05 02:52 | 37.74496 | -122.21520 | 1204 ft | 86 kts | 103° |
| 2026-05-05 02:52 | 37.74336 | -122.20797 | 1378 ft | 94 kts | 106° |
| 2026-05-05 02:53 | 37.74102 | -122.19910 | 1356 ft | 117 kts | 111° |
| 2026-05-05 02:53 | 37.73804 | -122.18919 | 1418 ft | 123 kts | 111° |
| 2026-05-05 02:53 | 37.73426 | -122.17915 | 1398 ft | 131 kts | 123° |
| 2026-05-05 02:53 | 37.72853 | -122.17063 | 1351 ft | 124 kts | 139° |
| 2026-05-05 02:54 | 37.72190 | -122.16330 | 1350 ft | 129 kts | 140° |
| 2026-05-05 02:54 | 37.71500 | -122.15631 | 1395 ft | 129 kts | 144° |
| 2026-05-05 02:54 | 37.70763 | -122.14977 | 1412 ft | 130 kts | 146° |
| 2026-05-05 02:54 | 37.70008 | -122.14331 | 1415 ft | 131 kts | 146° |
| 2026-05-05 02:55 | 37.69235 | -122.13704 | 1402 ft | 133 kts | 149° |
| 2026-05-05 02:55 | 37.68435 | -122.13106 | 1391 ft | 134 kts | 150° |
| 2026-05-05 02:55 | 37.67618 | -122.12538 | 1388 ft | 133 kts | 152° |
| 2026-05-05 02:55 | 37.66808 | -122.11967 | 1388 ft | 134 kts | 152° |
| 2026-05-05 02:56 | 37.65992 | -122.11409 | 1391 ft | 134 kts | 153° |
| 2026-05-05 02:56 | 37.65167 | -122.10867 | 1399 ft | 133 kts | 152° |
| 2026-05-05 02:56 | 37.64368 | -122.10276 | 1399 ft | 134 kts | 149° |
| 2026-05-05 02:56 | 37.63581 | -122.09644 | 1401 ft | 134 kts | 148° |
| 2026-05-05 02:57 | 37.62802 | -122.09013 | 1409 ft | 133 kts | 147° |
| 2026-05-05 02:57 | 37.62050 | -122.08318 | 1409 ft | 133 kts | 142° |
| 2026-05-05 02:57 | 37.61316 | -122.07602 | 1418 ft | 133 kts | 143° |
| 2026-05-05 02:57 | 37.60552 | -122.06967 | 1402 ft | 133 kts | 152° |
| 2026-05-05 02:58 | 37.59709 | -122.06473 | 1403 ft | 133 kts | 157° |
| 2026-05-05 02:58 | 37.58861 | -122.06014 | 1413 ft | 132 kts | 157° |
| 2026-05-05 02:58 | 37.58033 | -122.05483 | 1402 ft | 134 kts | 150° |
| 2026-05-05 02:58 | 37.57249 | -122.04849 | 1406 ft | 134 kts | 147° |
| 2026-05-05 02:59 | 37.56461 | -122.04217 | 1403 ft | 133 kts | 149° |
| 2026-05-05 02:59 | 37.55661 | -122.03630 | 1415 ft | 133 kts | 150° |
| 2026-05-05 02:59 | 37.54875 | -122.03008 | 1411 ft | 133 kts | 146° |
| 2026-05-05 02:59 | 37.54108 | -122.02354 | 1409 ft | 133 kts | 147° |
| 2026-05-05 03:00 | 37.53341 | -122.01693 | 1409 ft | 133 kts | 146° |
| 2026-05-05 03:00 | 37.52581 | -122.01047 | 1412 ft | 133 kts | 147° |
| 2026-05-05 03:00 | 37.51784 | -122.00450 | 1404 ft | 134 kts | 153° |
| 2026-05-05 03:00 | 37.50960 | -121.99911 | 1418 ft | 133 kts | 153° |
| 2026-05-05 03:01 | 37.50131 | -121.99384 | 1418 ft | 133 kts | 154° |
| 2026-05-05 03:01 | 37.49280 | -121.98917 | 1422 ft | 133 kts | 160° |
| 2026-05-05 03:01 | 37.48405 | -121.98535 | 1429 ft | 133 kts | 163° |
| 2026-05-05 03:01 | 37.47513 | -121.98222 | 1424 ft | 133 kts | 165° |
| 2026-05-05 03:02 | 37.46621 | -121.97928 | 1350 ft | 138 kts | 166° |
| 2026-05-05 03:02 | 37.45679 | -121.97625 | 1218 ft | 141 kts | 166° |
| 2026-05-05 03:02 | 37.44723 | -121.97338 | 1114 ft | 141 kts | 168° |
| 2026-05-05 03:02 | 37.43756 | -121.97096 | 1006 ft | 140 kts | 169° |
| 2026-05-05 03:03 | 37.42821 | -121.96876 | 948 ft | 136 kts | 171° |
| 2026-05-05 03:03 | 37.41904 | -121.96713 | 992 ft | 132 kts | 174° |
| 2026-05-05 03:03 | 37.41000 | -121.96525 | 981 ft | 133 kts | 171° |
| 2026-05-05 03:03 | 37.40082 | -121.96336 | 970 ft | 134 kts | 171° |
| 2026-05-05 03:04 | 37.39165 | -121.96133 | 957 ft | 135 kts | 169° |
| 2026-05-05 03:04 | 37.38248 | -121.95923 | 966 ft | 133 kts | 170° |
| 2026-05-05 03:04 | 37.37350 | -121.95644 | 967 ft | 134 kts | 161° |
| 2026-05-05 03:04 | 37.36529 | -121.95099 | 976 ft | 133 kts | 145° |
| 2026-05-05 03:05 | 37.35821 | -121.94342 | 947 ft | 134 kts | 139° |
| 2026-05-05 03:05 | 37.35208 | -121.93643 | 992 ft | 94 kts | 140° |
| 2026-05-05 03:05 | 37.34947 | -121.93003 | 813 ft | 82 kts | 85° |
| 2026-05-05 03:05 | 37.35325 | -121.92496 | 406 ft | 88 kts | 12° |
| 2026-05-05 03:06 | 37.35868 | -121.92560 | 136 ft | 72 kts | 326° |
| 2026-05-05 03:06 | 37.36191 | -121.92899 | 59 ft | 47 kts | 313° |
| 2026-05-05 03:06 | 37.36404 | -121.93137 | 55 ft | 44 kts | 325° |
| 2026-05-05 03:06 | 37.36544 | -121.93114 | 50 ft | 0 kts | 41° |